Albshausen, Germany

11:13 PM CET on February 27, 2017 (GMT +0100)
Im jungen Hain | | Change Station

Elev 767 ft 50.89 °N, 8.84 °E | Updated 1 second ago

Rain
Rain
45.9 °F
Feels Like 46 °F
N
2.5
Wind Variable Wind from South
Gusts 8.1 mph

Today
High -- | Low -- °F
--% Chance of Precip.
Yesterday
High -- | Low -- °F
Precip. -- in
Pressure 29.36 in
Visibility 3.7 miles
Clouds Scattered Clouds 1500 ft
Mostly Cloudy 2000 ft
Windchill 46 °F
Dew Point 42 °F
Humidity 86%
Rainfall 0.20 in
Snow Depth Not available.
7:12 AM 6:02 PM
New Moon, 2% visible
SPECI ETHF 272200Z 18010KT 6000 RA SCT015 BKN020 07/05 Q0994 WHT
Pressure 29.36 in
Visibility 3.7 miles
Clouds Scattered Clouds 1500 ft
Mostly Cloudy 2000 ft
Windchill 46 °F
Dew Point 42 °F
Humidity 86%
Rainfall 0.20 in
Snow Depth Not available.
7:12 AM 6:02 PM
New Moon, 2% visible
SPECI ETHF 272200Z 18010KT 6000 RA SCT015 BKN020 07/05 Q0994 WHT

Get Your Daily Forecast Email!

Thanks for signing up!

Be on the lookout for a verification email in your inbox.

You'll start receiving the daily forecast at 8 AM.

×

10-Day Weather Forecast

×

Almanac

Astronomy

Feb. 27, 2017 Rise Set
Actual Time
Civil Twilight
Nautical Twilight
Astronomical Twilight
Moon
Length of Visible Light
Length of Day
Tomorrow will be .
, % of the Moon is Illuminated

Today's Extremes

Country Highs Country Lows

Community

WunderPhotos

Upload Photos

1,962,540 photos uploaded!

WunderBlog® & News

Nearby

Air Quality

  Air Quality AQ Index Pollutant
Not available.

Snow Depth

Station Depth Elevation

Earthquake Activity

City Distance Mag. Time & Date
Minimum magnitude displayed is 2.5.

Coastal Water Temperatures

Place Temperature

Stations

Nearby Weather Stations

Station Location Temp. Windchill Dew Point Humidity Wind Precip. Elev Updated Type